createdAt,value
2022-12-06T00:01:43.774Z,12.73
2022-12-06T00:04:15.668Z,17.33
2022-12-06T00:06:50.849Z,15.05
2022-12-06T00:09:24.968Z,19.60
2022-12-06T00:11:54.143Z,19.10
2022-12-06T00:14:27.171Z,16.02
2022-12-06T00:16:56.736Z,14.38
2022-12-06T00:19:26.252Z,13.70
2022-12-06T00:21:55.599Z,19.40
2022-12-06T00:24:26.308Z,20.30
2022-12-06T00:26:55.097Z,17.45
2022-12-06T00:29:25.584Z,19.23
2022-12-06T00:31:54.461Z,15.75
2022-12-06T00:34:23.271Z,15.73
2022-12-06T00:36:52.088Z,19.92
2022-12-06T00:39:20.964Z,17.23
2022-12-06T00:41:51.641Z,19.70
2022-12-06T00:44:20.740Z,15.95
2022-12-06T00:46:49.501Z,20.35
2022-12-06T00:49:18.424Z,16.10
2022-12-06T00:51:47.232Z,15.60
2022-12-06T00:54:16.982Z,15.30
2022-12-06T00:56:45.874Z,16.92
2022-12-06T00:59:16.864Z,16.75
2022-12-06T01:01:45.717Z,18.70
2022-12-06T01:04:14.544Z,16.33
2022-12-06T01:06:43.475Z,18.80
2022-12-06T01:09:13.596Z,13.23
2022-12-06T01:11:42.587Z,14.57
2022-12-06T01:14:11.413Z,13.05
2022-12-06T01:16:43.146Z,16.42
2022-12-06T01:19:14.392Z,15.43
2022-12-06T01:21:42.983Z,15.52
2022-12-06T01:24:11.644Z,14.48
2022-12-06T01:26:40.325Z,14.93
2022-12-06T01:29:09.048Z,14.05
2022-12-06T01:31:39.256Z,13.93
2022-12-06T01:34:17.731Z,14.77
2022-12-06T01:36:46.611Z,14.20
2022-12-06T01:39:15.244Z,18.17
2022-12-06T01:41:44.153Z,12.55
2022-12-06T01:44:42.280Z,13.98
2022-12-06T01:47:18.793Z,12.65
2022-12-06T01:49:57.490Z,15.55
2022-12-06T01:52:31.833Z,14.02
2022-12-06T01:55:02.179Z,14.45
2022-12-06T01:57:32.078Z,12.32
2022-12-06T02:00:01.260Z,14.85
2022-12-06T02:02:30.165Z,9.32
2022-12-06T02:05:01.400Z,12.88
2022-12-06T02:07:30.966Z,14.30
2022-12-06T02:10:00.048Z,10.23
2022-12-06T02:12:28.847Z,12.23
2022-12-06T02:14:59.012Z,13.38
2022-12-06T02:17:45.124Z,13.48
2022-12-06T02:20:23.978Z,11.00
2022-12-06T02:23:29.127Z,11.02
2022-12-06T02:26:25.549Z,9.75
2022-12-06T02:29:39.511Z,12.90
2022-12-06T02:32:15.456Z,10.40
2022-12-06T02:34:49.767Z,10.02
2022-12-06T02:37:26.914Z,11.05
2022-12-06T02:40:02.907Z,11.77
2022-12-06T02:42:38.232Z,10.82
2022-12-06T02:45:14.627Z,13.00
2022-12-06T02:47:47.849Z,12.10
2022-12-06T02:50:20.668Z,12.50
2022-12-06T02:52:55.350Z,8.77
2022-12-06T02:55:26.387Z,11.00
2022-12-06T02:57:56.793Z,8.77
2022-12-06T03:00:38.780Z,9.77
2022-12-06T03:03:41.548Z,12.65
2022-12-06T03:06:42.743Z,11.85
2022-12-06T03:09:26.850Z,9.00
2022-12-06T03:12:08.147Z,8.25
2022-12-06T03:14:46.840Z,9.10
2022-12-06T03:17:24.852Z,9.80
2022-12-06T03:20:00.967Z,10.55
2022-12-06T03:22:38.223Z,7.53
2022-12-06T03:25:11.749Z,8.68
2022-12-06T03:27:43.256Z,7.05
2022-12-06T03:30:16.268Z,8.73
2022-12-06T03:32:50.588Z,9.32
2022-12-06T03:35:27.340Z,8.55
2022-12-06T03:38:03.288Z,9.52
2022-12-06T03:40:36.613Z,8.52
2022-12-06T03:43:06.675Z,9.18
2022-12-06T03:45:42.648Z,8.68
2022-12-06T03:48:16.609Z,6.70
2022-12-06T03:50:58.304Z,12.77
2022-12-06T03:53:27.627Z,9.00
2022-12-06T03:55:56.294Z,9.00
2022-12-06T03:58:25.047Z,11.20
2022-12-06T04:00:53.708Z,8.50
2022-12-06T04:03:22.529Z,11.82
2022-12-06T04:05:53.108Z,8.15
2022-12-06T04:08:21.773Z,9.10
2022-12-06T04:10:50.431Z,8.85
2022-12-06T04:13:19.897Z,10.07
2022-12-06T04:15:49.304Z,12.32
2022-12-06T04:18:17.946Z,8.50
2022-12-06T04:21:02.958Z,12.05
2022-12-06T04:23:36.446Z,8.98
2022-12-06T04:26:07.307Z,12.57
2022-12-06T04:28:49.193Z,10.82
2022-12-06T04:31:31.247Z,7.40
2022-12-06T04:36:55.113Z,6.60
2022-12-06T04:39:26.079Z,7.30
2022-12-06T04:42:08.709Z,8.80
2022-12-06T04:44:37.610Z,8.98
2022-12-06T04:47:07.327Z,8.88
2022-12-06T04:49:37.502Z,12.70
2022-12-06T04:52:08.187Z,10.23
2022-12-06T04:54:40.008Z,13.05
2022-12-06T04:57:10.350Z,9.55
2022-12-06T04:59:40.583Z,11.98
2022-12-06T05:02:12.971Z,10.50
2022-12-06T05:04:41.671Z,6.70
2022-12-06T05:07:11.086Z,10.00
2022-12-06T05:09:41.667Z,10.00
2022-12-06T05:12:10.763Z,10.50
2022-12-06T05:14:39.395Z,9.13
2022-12-06T05:17:08.155Z,7.30
2022-12-06T05:19:36.716Z,9.80
2022-12-06T05:22:05.335Z,9.27
2022-12-06T05:24:34.204Z,10.25
2022-12-06T05:27:04.742Z,9.68
2022-12-06T05:29:33.596Z,8.07
2022-12-06T05:32:02.344Z,7.20
2022-12-06T05:34:31.053Z,6.68
2022-12-06T05:36:59.725Z,7.53
2022-12-06T05:39:28.769Z,9.13
2022-12-06T05:41:57.523Z,10.52
2022-12-06T05:44:28.359Z,7.97
2022-12-06T05:46:57.115Z,6.97
2022-12-06T05:49:25.672Z,9.48
2022-12-06T05:51:54.706Z,10.45
2022-12-06T05:54:23.515Z,9.68
2022-12-06T05:56:52.384Z,7.68
2022-12-06T05:59:20.962Z,11.90
2022-12-06T06:01:52.059Z,7.90
2022-12-06T06:04:20.742Z,9.60
2022-12-06T06:06:49.401Z,8.25
2022-12-06T06:09:18.316Z,9.77
2022-12-06T06:11:46.954Z,6.90
2022-12-06T06:14:16.292Z,8.20
2022-12-06T06:16:44.981Z,9.93
2022-12-06T06:19:15.628Z,9.32
2022-12-06T06:21:44.291Z,7.78
2022-12-06T06:24:12.975Z,12.73
2022-12-06T06:26:41.675Z,10.13
2022-12-06T06:29:10.323Z,8.43
2022-12-06T06:31:39.035Z,10.68
2022-12-06T06:34:07.766Z,9.93
2022-12-06T06:36:42.519Z,11.35
2022-12-06T06:39:14.251Z,9.18
2022-12-06T06:41:43.044Z,9.80
2022-12-06T06:44:11.657Z,8.95
2022-12-06T06:46:40.695Z,11.10
2022-12-06T06:49:09.357Z,10.88
2022-12-06T06:51:39.891Z,10.45
2022-12-06T06:54:08.470Z,9.60
2022-12-06T06:56:37.047Z,9.05
2022-12-06T06:59:06.191Z,11.30
2022-12-06T07:01:35.332Z,14.15
2022-12-06T07:04:04.226Z,10.52
2022-12-06T07:06:32.888Z,12.27
2022-12-06T07:09:03.516Z,15.68
2022-12-06T07:11:32.191Z,13.82
2022-12-06T07:14:02.040Z,12.10
2022-12-06T07:16:30.792Z,14.43
2022-12-06T07:18:59.488Z,13.75
2022-12-06T07:21:28.294Z,13.25
2022-12-06T07:23:56.998Z,11.68
2022-12-06T07:26:28.298Z,13.27
2022-12-06T07:28:58.008Z,12.82
2022-12-06T07:31:29.339Z,14.65
2022-12-06T07:34:00.411Z,12.15
2022-12-06T07:36:32.605Z,11.47
2022-12-06T07:39:02.078Z,13.57
2022-12-06T07:41:45.964Z,16.85
2022-12-06T07:44:29.787Z,10.65
2022-12-06T07:46:59.617Z,12.68
2022-12-06T07:49:29.246Z,11.20
2022-12-06T07:51:59.417Z,12.55
2022-12-06T07:54:28.623Z,14.70
2022-12-06T07:56:59.238Z,12.07
2022-12-06T07:59:28.290Z,14.65
2022-12-06T08:01:57.084Z,11.57
2022-12-06T08:04:25.851Z,13.85
2022-12-06T08:06:55.601Z,14.45
2022-12-06T08:09:24.357Z,13.27
2022-12-06T08:11:53.141Z,10.85
2022-12-06T08:14:24.022Z,15.02
2022-12-06T08:16:53.144Z,13.73
2022-12-06T08:19:22.162Z,12.45
2022-12-06T08:21:51.012Z,14.05
2022-12-06T08:24:19.905Z,12.55
2022-12-06T08:26:49.095Z,13.60
2022-12-06T08:29:18.014Z,14.27
2022-12-06T08:31:48.693Z,13.55
2022-12-06T08:34:18.055Z,11.30
2022-12-06T08:36:46.836Z,11.68
2022-12-06T08:39:15.609Z,10.20
2022-12-06T08:41:57.377Z,8.57
2022-12-06T08:44:28.460Z,10.82
2022-12-06T08:47:01.319Z,6.60
2022-12-06T08:49:31.440Z,7.40
2022-12-06T08:52:01.244Z,5.22
2022-12-06T08:54:30.480Z,6.65
2022-12-06T08:56:59.224Z,5.88
2022-12-06T08:59:28.144Z,7.47
2022-12-06T09:01:58.954Z,6.88
2022-12-06T09:04:28.497Z,8.18
2022-12-06T09:06:57.281Z,6.80
2022-12-06T09:09:26.121Z,6.63
2022-12-06T09:11:54.995Z,7.28
2022-12-06T09:14:24.085Z,6.60
2022-12-06T09:16:53.518Z,7.25
2022-12-06T09:19:24.281Z,6.50
2022-12-06T09:21:53.043Z,6.47
2022-12-06T09:24:22.130Z,5.30
2022-12-06T09:26:51.303Z,5.30
2022-12-06T09:29:20.364Z,6.13
2022-12-06T09:31:49.112Z,8.25
2022-12-06T09:34:17.983Z,5.68
2022-12-06T09:36:55.476Z,7.38
2022-12-06T09:39:31.780Z,7.07
2022-12-06T09:42:43.824Z,6.57
2022-12-06T09:45:32.059Z,7.20
2022-12-06T09:48:48.741Z,5.50
2022-12-06T09:51:33.101Z,5.38
2022-12-06T09:54:22.692Z,5.93
2022-12-06T09:56:58.992Z,6.60
2022-12-06T09:59:42.933Z,7.38
2022-12-06T10:02:49.461Z,5.45
2022-12-06T10:05:39.908Z,8.85
2022-12-06T10:08:24.655Z,6.15
2022-12-06T10:11:09.067Z,5.82
2022-12-06T10:13:58.229Z,7.07
2022-12-06T10:16:54.869Z,5.60
2022-12-06T10:19:40.938Z,8.32
2022-12-06T10:22:20.962Z,5.85
2022-12-06T10:25:04.409Z,6.90
2022-12-06T10:27:40.598Z,10.48
2022-12-06T10:30:14.180Z,6.43
2022-12-06T10:32:55.105Z,5.35
2022-12-06T10:35:41.215Z,6.13
2022-12-06T10:38:28.941Z,6.10
2022-12-06T10:41:10.624Z,6.90
2022-12-06T10:43:51.097Z,5.43
2022-12-06T10:46:41.688Z,7.78
2022-12-06T10:49:24.005Z,9.32
2022-12-06T10:52:02.127Z,4.95
2022-12-06T10:54:39.064Z,6.30
2022-12-06T10:57:18.391Z,5.47
2022-12-06T11:00:00.320Z,6.20
2022-12-06T11:02:40.640Z,7.40
2022-12-06T11:05:20.049Z,6.95
2022-12-06T11:07:53.888Z,7.15
2022-12-06T11:10:28.001Z,5.28
2022-12-06T11:13:02.986Z,7.88
2022-12-06T11:15:37.607Z,4.45
2022-12-06T11:18:12.774Z,6.28
2022-12-06T11:20:46.135Z,4.80
2022-12-06T11:23:26.771Z,6.07
2022-12-06T11:26:14.462Z,8.98
2022-12-06T11:28:48.842Z,6.85
2022-12-06T11:31:26.983Z,6.60
2022-12-06T11:33:56.371Z,6.60
2022-12-06T11:36:29.978Z,5.22
2022-12-06T11:38:59.591Z,4.50
2022-12-06T11:41:32.333Z,5.32
2022-12-06T11:44:01.342Z,3.75
2022-12-06T11:46:32.052Z,5.75
2022-12-06T11:49:13.878Z,5.13
2022-12-06T11:51:45.419Z,6.55
2022-12-06T11:54:28.680Z,4.82
2022-12-06T11:57:02.792Z,5.80
2022-12-06T11:59:33.150Z,5.07
2022-12-06T12:02:05.620Z,5.80
2022-12-06T12:04:39.318Z,5.65
2022-12-06T12:07:16.671Z,4.32
2022-12-06T12:09:55.111Z,5.10
2022-12-06T12:12:47.292Z,4.55
2022-12-06T12:17:53.442Z,4.78
2022-12-06T12:20:27.525Z,6.63
2022-12-06T12:23:05.752Z,7.40
2022-12-06T12:25:36.460Z,5.90
2022-12-06T12:28:23.477Z,4.10
2022-12-06T12:30:55.349Z,3.30
2022-12-06T12:36:09.935Z,2.38
2022-12-06T12:38:43.499Z,3.83
2022-12-06T12:41:30.815Z,4.75
2022-12-06T12:46:57.324Z,3.33
2022-12-06T12:49:35.107Z,4.78
2022-12-06T12:52:25.995Z,4.85
2022-12-06T12:55:02.420Z,5.30
2022-12-06T12:57:31.571Z,3.20
2022-12-06T13:00:00.353Z,3.33
2022-12-06T13:02:32.339Z,3.55
2022-12-06T13:05:32.084Z,5.00
2022-12-06T13:08:05.830Z,4.63
2022-12-06T13:10:38.262Z,4.95
2022-12-06T13:13:19.878Z,6.72
2022-12-06T13:15:52.270Z,7.80
2022-12-06T13:18:24.636Z,6.55
2022-12-06T13:20:58.159Z,4.95
2022-12-06T13:23:31.788Z,6.95
2022-12-06T13:26:17.250Z,4.82
2022-12-06T13:28:52.141Z,4.53
2022-12-06T13:31:25.376Z,7.97
2022-12-06T13:34:00.032Z,6.93
2022-12-06T13:36:34.940Z,6.40
2022-12-06T13:39:36.911Z,5.85
2022-12-06T13:42:19.680Z,7.70
2022-12-06T13:44:58.780Z,3.72
2022-12-06T13:47:51.372Z,6.30
2022-12-06T13:50:53.195Z,6.40
2022-12-06T13:53:25.850Z,4.72
2022-12-06T13:56:00.888Z,5.82
2022-12-06T13:58:54.115Z,6.15
2022-12-06T14:01:43.323Z,6.13
2022-12-06T14:09:44.595Z,6.80
2022-12-06T14:12:21.213Z,4.68
2022-12-06T14:15:00.755Z,5.07
2022-12-06T14:20:33.272Z,5.70
2022-12-06T14:23:01.959Z,4.40
2022-12-06T14:25:32.648Z,4.28
2022-12-06T14:28:08.564Z,2.45
2022-12-06T14:30:44.166Z,3.85
2022-12-06T14:33:30.621Z,3.95
2022-12-06T14:36:01.084Z,3.25
2022-12-06T14:38:34.482Z,2.55
2022-12-06T14:41:32.884Z,3.00
2022-12-06T14:44:01.558Z,2.38
2022-12-06T14:46:30.511Z,2.83
2022-12-06T14:49:27.555Z,2.53
2022-12-06T14:52:00.041Z,4.05
2022-12-06T14:54:42.851Z,2.85
2022-12-06T14:57:27.558Z,7.35
2022-12-06T15:00:16.173Z,5.05
2022-12-06T15:03:24.897Z,6.55
2022-12-06T15:06:12.226Z,5.57
2022-12-06T15:08:42.354Z,4.30
2022-12-06T15:11:45.254Z,4.55
2022-12-06T15:14:19.384Z,3.97
2022-12-06T15:16:58.503Z,5.25
2022-12-06T15:19:27.475Z,3.95
2022-12-06T15:21:56.446Z,3.92
2022-12-06T15:24:27.472Z,7.07
2022-12-06T15:26:56.785Z,7.93
2022-12-06T15:29:27.390Z,7.90
2022-12-06T15:31:57.392Z,8.93
2022-12-06T15:34:29.411Z,7.35
2022-12-06T15:37:36.489Z,7.88
2022-12-06T15:39:49.057Z,5.85
2022-12-06T15:42:21.185Z,4.05
2022-12-06T15:44:52.771Z,4.85
2022-12-06T15:47:21.544Z,5.18
2022-12-06T15:49:52.586Z,4.35
2022-12-06T15:52:24.400Z,4.87
2022-12-06T15:54:53.449Z,5.88
2022-12-06T15:57:22.213Z,4.75
2022-12-06T15:59:52.816Z,5.43
2022-12-06T16:02:21.608Z,5.78
2022-12-06T16:04:51.294Z,5.05
2022-12-06T16:07:19.969Z,6.00
2022-12-06T16:09:49.307Z,6.78
2022-12-06T16:12:18.650Z,5.45
2022-12-06T16:14:47.591Z,3.50
2022-12-06T16:17:18.657Z,3.85
2022-12-06T16:20:00.423Z,4.47
2022-12-06T16:22:42.032Z,8.05
2022-12-06T16:25:11.371Z,5.22
2022-12-06T16:27:40.011Z,6.10
2022-12-06T16:30:11.365Z,6.60
2022-12-06T16:32:41.964Z,6.50
2022-12-06T16:35:10.591Z,4.78
2022-12-06T16:37:39.862Z,5.55
2022-12-06T16:40:20.130Z,9.63
2022-12-06T16:42:48.947Z,4.20
2022-12-06T16:45:18.415Z,5.75
2022-12-06T16:47:49.113Z,5.90
2022-12-06T16:50:26.143Z,7.28
2022-12-06T16:52:55.527Z,6.47
2022-12-06T16:55:24.228Z,5.30
2022-12-06T16:57:52.846Z,6.90
2022-12-06T17:00:22.564Z,7.50
2022-12-06T17:02:53.339Z,6.85
2022-12-06T17:05:25.856Z,7.97
2022-12-06T17:07:54.986Z,3.10
2022-12-06T17:10:24.025Z,5.43
2022-12-06T17:12:52.794Z,3.88
2022-12-06T17:15:23.301Z,6.63
2022-12-06T17:17:54.064Z,3.67
2022-12-06T17:20:22.793Z,7.45
2022-12-06T17:22:51.677Z,5.75
2022-12-06T17:25:20.857Z,6.28
2022-12-06T17:27:50.943Z,8.05
2022-12-06T17:30:22.713Z,6.13
2022-12-06T17:32:54.829Z,6.72
2022-12-06T17:35:31.508Z,4.97
2022-12-06T17:38:03.672Z,6.07
2022-12-06T17:40:50.759Z,5.30
2022-12-06T17:43:20.295Z,6.10
2022-12-06T17:45:49.319Z,5.70
2022-12-06T17:48:22.884Z,5.55
2022-12-06T17:50:51.579Z,6.28
2022-12-06T17:53:20.478Z,8.07
2022-12-06T17:55:49.493Z,6.32
2022-12-06T17:58:18.582Z,6.25
2022-12-06T18:01:13.666Z,7.80
2022-12-06T18:06:30.519Z,6.97
2022-12-06T18:09:00.724Z,7.50
2022-12-06T18:11:31.038Z,7.78
